createdAt,value
2018-04-06T00:00:01.747Z,20.40
2018-04-06T00:02:29.919Z,18.10
2018-04-06T00:04:58.119Z,18.63
2018-04-06T00:07:26.262Z,18.30
2018-04-06T00:09:54.436Z,18.53
2018-04-06T00:12:29.583Z,18.83
2018-04-06T00:14:57.860Z,19.93
2018-04-06T00:17:26.021Z,17.47
2018-04-06T00:19:54.198Z,17.50
2018-04-06T00:22:22.483Z,16.97
2018-04-06T00:24:50.759Z,18.40
2018-04-06T00:27:18.923Z,17.40
2018-04-06T00:29:48.023Z,18.50
2018-04-06T00:32:16.190Z,18.10
2018-04-06T00:34:45.185Z,16.00
2018-04-06T00:37:13.355Z,17.30
2018-04-06T00:39:42.047Z,14.70
2018-04-06T00:42:10.219Z,16.90
2018-04-06T00:44:38.394Z,16.70
2018-04-06T00:47:07.997Z,15.60
2018-04-06T00:49:36.169Z,14.13
2018-04-06T00:52:04.347Z,14.90
2018-04-06T00:54:32.631Z,14.03
2018-04-06T00:57:00.796Z,14.03
2018-04-06T00:59:28.978Z,14.70
2018-04-06T01:01:57.145Z,14.73
2018-04-06T01:04:25.318Z,15.03
2018-04-06T01:06:53.486Z,12.90
2018-04-06T01:09:21.781Z,13.27
2018-04-06T01:11:50.653Z,13.30
2018-04-06T01:14:19.863Z,13.57
2018-04-06T01:16:48.138Z,14.10
2018-04-06T01:19:16.306Z,14.10
2018-04-06T01:21:44.478Z,14.90
2018-04-06T01:24:12.762Z,13.57
2018-04-06T01:26:40.726Z,13.87
2018-04-06T01:29:08.892Z,13.97
2018-04-06T01:31:37.072Z,13.87
2018-04-06T01:34:05.244Z,13.63
2018-04-06T01:36:33.413Z,14.17
2018-04-06T01:39:02.102Z,15.43
2018-04-06T01:41:30.272Z,14.27
2018-04-06T01:43:58.562Z,13.63
2018-04-06T01:46:26.837Z,15.13
2018-04-06T01:48:55.001Z,14.67
2018-04-06T01:51:23.072Z,14.10
2018-04-06T01:53:51.017Z,13.60
2018-04-06T01:56:19.110Z,12.90
2018-04-06T01:58:47.285Z,13.67
2018-04-06T02:01:15.461Z,13.67
2018-04-06T02:03:43.630Z,14.50
2018-04-06T02:06:12.316Z,14.60
2018-04-06T02:08:40.604Z,15.00
2018-04-06T02:11:08.880Z,15.57
2018-04-06T02:13:37.975Z,15.23
2018-04-06T02:16:06.136Z,16.30
2018-04-06T02:18:34.310Z,16.90
2018-04-06T02:21:02.314Z,14.60
2018-04-06T02:23:30.566Z,15.10
2018-04-06T02:25:58.832Z,13.83
2018-04-06T02:28:27.009Z,12.77
2018-04-06T02:30:55.294Z,12.70
2018-04-06T02:33:24.178Z,14.00
2018-04-06T02:35:52.345Z,13.23
2018-04-06T02:38:20.529Z,13.00
2018-04-06T02:40:49.523Z,14.47
2018-04-06T02:43:18.618Z,12.60
2018-04-06T02:45:46.780Z,13.90
2018-04-06T02:48:15.067Z,14.10
2018-04-06T02:50:43.229Z,11.60
2018-04-06T02:53:11.409Z,13.87
2018-04-06T02:55:39.578Z,11.87
2018-04-06T02:58:07.754Z,14.50
2018-04-06T03:00:36.606Z,11.23
2018-04-06T03:03:04.875Z,13.30
2018-04-06T03:05:33.094Z,12.60
2018-04-06T03:08:01.378Z,11.97
2018-04-06T03:10:29.543Z,11.40
2018-04-06T03:12:57.828Z,12.47
2018-04-06T03:15:25.964Z,11.87
2018-04-06T03:17:54.162Z,13.33
2018-04-06T03:20:22.336Z,12.43
2018-04-06T03:22:50.516Z,13.63
2018-04-06T03:25:18.802Z,14.27
2018-04-06T03:27:47.790Z,14.02
2018-04-06T03:30:15.959Z,13.70
2018-04-06T03:32:44.239Z,13.97
2018-04-06T03:35:12.618Z,13.67
2018-04-06T03:37:40.786Z,14.33
2018-04-06T03:40:08.953Z,13.32
2018-04-06T03:42:37.127Z,12.77
2018-04-06T03:45:05.421Z,12.27
2018-04-06T03:47:34.299Z,11.90
2018-04-06T03:50:03.185Z,12.02
2018-04-06T03:52:31.361Z,13.60
2018-04-06T03:54:59.531Z,11.50
2018-04-06T03:57:27.705Z,13.43
2018-04-06T03:59:56.711Z,13.10
2018-04-06T04:02:25.668Z,13.17
2018-04-06T04:04:53.765Z,12.57
2018-04-06T04:07:22.056Z,13.87
2018-04-06T04:09:50.216Z,14.20
2018-04-06T04:12:19.107Z,12.30
2018-04-06T04:14:47.276Z,12.10
2018-04-06T04:17:15.563Z,11.60
2018-04-06T04:19:44.449Z,12.00
2018-04-06T04:22:12.512Z,13.50
2018-04-06T04:24:40.803Z,11.33
2018-04-06T04:27:09.687Z,11.80
2018-04-06T04:29:37.968Z,11.95
2018-04-06T04:32:06.856Z,12.50
2018-04-06T04:34:35.739Z,12.10
2018-04-06T04:37:04.024Z,11.50
2018-04-06T04:39:33.121Z,11.18
2018-04-06T04:42:02.001Z,11.77
2018-04-06T04:44:30.175Z,13.10
2018-04-06T04:46:58.459Z,12.65
2018-04-06T04:49:27.165Z,11.95
2018-04-06T04:51:56.035Z,12.93
2018-04-06T04:54:24.922Z,12.45
2018-04-06T04:56:53.201Z,12.60
2018-04-06T04:59:21.362Z,12.73
2018-04-06T05:01:49.651Z,13.93
2018-04-06T05:04:18.536Z,13.17
2018-04-06T05:06:46.600Z,12.88
2018-04-06T05:09:14.671Z,12.10
2018-04-06T05:11:43.567Z,12.90
2018-04-06T05:14:11.740Z,11.60
2018-04-06T05:16:39.912Z,13.80
2018-04-06T05:19:08.197Z,11.97
2018-04-06T05:21:37.178Z,10.93
2018-04-06T05:24:05.352Z,12.13
2018-04-06T05:26:33.528Z,13.57
2018-04-06T05:29:01.703Z,12.40
2018-04-06T05:31:30.489Z,12.10
2018-04-06T05:33:58.665Z,14.87
2018-04-06T05:36:26.834Z,13.23
2018-04-06T05:38:55.102Z,11.75
2018-04-06T05:41:23.295Z,11.87
2018-04-06T05:43:51.231Z,13.10
2018-04-06T05:46:19.329Z,11.77
2018-04-06T05:48:47.504Z,9.80
2018-04-06T05:51:15.670Z,10.93
2018-04-06T05:53:43.962Z,11.30
2018-04-06T05:56:12.124Z,10.23
2018-04-06T05:58:40.297Z,10.57
2018-04-06T06:01:08.472Z,10.83
2018-04-06T06:03:36.755Z,11.10
2018-04-06T06:06:05.634Z,10.40
2018-04-06T06:08:33.807Z,11.20
2018-04-06T06:11:02.096Z,11.30
2018-04-06T06:13:30.257Z,11.20
2018-04-06T06:15:58.430Z,13.53
2018-04-06T06:18:26.609Z,17.00
2018-04-06T06:20:55.498Z,17.53
2018-04-06T06:23:23.533Z,14.53
2018-04-06T06:25:51.640Z,16.77
2018-04-06T06:28:19.925Z,15.13
2018-04-06T06:30:48.086Z,16.67
2018-04-06T06:33:16.259Z,16.03
2018-04-06T06:35:44.331Z,17.77
2018-04-06T06:38:12.295Z,16.67
2018-04-06T06:40:40.484Z,18.50
2018-04-06T06:43:08.809Z,18.90
2018-04-06T06:45:37.037Z,20.13
2018-04-06T06:48:05.202Z,20.30
2018-04-06T06:50:33.378Z,19.20
2018-04-06T06:53:02.369Z,20.80
2018-04-06T06:55:30.542Z,19.43
2018-04-06T06:57:58.830Z,18.30
2018-04-06T07:00:27.105Z,19.23
2018-04-06T07:02:56.096Z,20.60
2018-04-06T07:05:24.262Z,20.47
2018-04-06T07:07:52.439Z,18.43
2018-04-06T07:10:20.707Z,19.90
2018-04-06T07:12:48.881Z,18.47
2018-04-06T07:15:17.057Z,18.90
2018-04-06T07:17:45.228Z,21.27
2018-04-06T07:20:13.517Z,18.63
2018-04-06T07:22:41.676Z,21.13
2018-04-06T07:25:09.849Z,22.50
2018-04-06T07:27:37.928Z,22.70
2018-04-06T07:30:06.710Z,20.73
2018-04-06T07:32:34.883Z,20.67
2018-04-06T07:35:03.057Z,21.40
2018-04-06T07:37:31.230Z,20.67
2018-04-06T07:40:00.223Z,19.50
2018-04-06T07:42:28.511Z,18.47
2018-04-06T07:44:57.254Z,20.87
2018-04-06T07:47:25.358Z,19.57
2018-04-06T07:49:53.533Z,22.70
2018-04-06T07:52:22.525Z,20.37
2018-04-06T07:54:50.702Z,22.10
2018-04-06T07:57:18.872Z,19.97
2018-04-06T07:59:47.048Z,20.50
2018-04-06T08:02:15.220Z,19.83
2018-04-06T08:04:44.214Z,19.23
2018-04-06T08:07:12.289Z,22.10
2018-04-06T08:09:40.570Z,18.67
2018-04-06T08:12:09.460Z,19.00
2018-04-06T08:14:38.455Z,21.03
2018-04-06T08:17:08.472Z,22.57
2018-04-06T08:19:36.639Z,20.27
2018-04-06T08:22:06.450Z,21.33
2018-04-06T08:24:35.449Z,21.43
2018-04-06T08:27:03.611Z,21.13
2018-04-06T08:29:31.784Z,22.17
2018-04-06T08:32:00.072Z,20.00
2018-04-06T08:34:29.667Z,22.60
2018-04-06T08:37:00.094Z,22.73
2018-04-06T08:39:28.267Z,25.10
2018-04-06T08:41:56.343Z,23.93
2018-04-06T08:44:26.054Z,25.03
2018-04-06T08:46:55.656Z,26.87
2018-04-06T08:49:24.547Z,28.47
2018-04-06T08:51:53.435Z,27.23
2018-04-06T08:54:22.441Z,27.33
2018-04-06T08:56:50.717Z,28.83
2018-04-06T08:59:18.878Z,30.40
2018-04-06T09:01:48.703Z,30.43
2018-04-06T09:04:16.868Z,28.87
2018-04-06T09:06:45.152Z,30.83
2018-04-06T09:09:13.428Z,31.60
2018-04-06T09:11:41.589Z,32.07
2018-04-06T09:14:11.200Z,29.63
2018-04-06T09:16:39.403Z,31.53
2018-04-06T09:19:08.388Z,31.73
2018-04-06T09:21:37.359Z,30.50
2018-04-06T09:24:05.644Z,30.93
2018-04-06T09:26:33.805Z,33.30
2018-04-06T09:29:04.335Z,30.80
2018-04-06T09:31:32.511Z,29.03
2018-04-06T09:34:00.682Z,28.33
2018-04-06T09:36:28.854Z,32.67
2018-04-06T09:38:57.030Z,31.80
2018-04-06T09:41:25.209Z,34.00
2018-04-06T09:43:54.098Z,33.87
2018-04-06T09:46:22.273Z,34.43
2018-04-06T09:48:51.054Z,35.50
2018-04-06T09:51:19.128Z,33.37
2018-04-06T09:53:47.202Z,36.10
2018-04-06T09:56:15.371Z,34.03
2018-04-06T09:58:43.659Z,35.00
2018-04-06T10:01:12.639Z,38.00
2018-04-06T10:03:40.813Z,38.30
2018-04-06T10:06:09.816Z,39.47
2018-04-06T10:08:38.708Z,35.03
2018-04-06T10:11:06.984Z,36.50
2018-04-06T10:13:35.150Z,35.97
2018-04-06T10:16:03.436Z,38.93
2018-04-06T10:18:31.607Z,41.60
2018-04-06T10:20:59.884Z,42.27
2018-04-06T10:23:28.049Z,41.70
2018-04-06T10:25:58.778Z,43.20
2018-04-06T10:28:26.851Z,42.07
2018-04-06T10:30:55.026Z,41.07
2018-04-06T10:33:23.311Z,43.87
2018-04-06T10:35:51.586Z,43.00
2018-04-06T10:38:20.365Z,46.80
2018-04-06T10:40:49.361Z,46.07
2018-04-06T10:43:17.643Z,43.97
2018-04-06T10:45:46.636Z,45.20
2018-04-06T10:48:14.798Z,45.47
2018-04-06T10:50:43.086Z,48.30
2018-04-06T10:53:11.865Z,46.13
2018-04-06T10:55:40.149Z,44.50
2018-04-06T10:58:08.314Z,43.90
2018-04-06T11:00:38.134Z,47.23
2018-04-06T11:03:06.349Z,45.40
2018-04-06T11:05:34.471Z,42.57
2018-04-06T11:08:03.415Z,39.07
2018-04-06T11:10:31.538Z,41.37
2018-04-06T11:12:59.613Z,39.23
2018-04-06T11:15:28.395Z,40.90
2018-04-06T11:17:56.578Z,43.67
2018-04-06T11:20:24.639Z,42.53
2018-04-06T11:22:52.712Z,39.83
2018-04-06T11:25:20.884Z,36.20
2018-04-06T11:27:49.062Z,38.80
2018-04-06T11:30:17.132Z,40.17
2018-04-06T11:32:45.201Z,40.87
2018-04-06T11:35:13.375Z,38.17
2018-04-06T11:37:43.094Z,38.33
2018-04-06T11:40:11.265Z,35.50
2018-04-06T11:42:42.445Z,35.23
2018-04-06T11:45:14.374Z,34.93
2018-04-06T11:47:45.779Z,37.03
2018-04-06T11:50:18.538Z,35.10
2018-04-06T11:52:51.046Z,28.90
2018-04-06T11:55:23.292Z,31.87
2018-04-06T11:57:56.073Z,32.50
2018-04-06T12:00:29.806Z,30.23
2018-04-06T12:02:59.723Z,30.30
2018-04-06T12:05:29.953Z,31.30
2018-04-06T12:08:02.373Z,31.80
2018-04-06T12:10:32.495Z,34.83
2018-04-06T12:13:02.824Z,34.07
2018-04-06T12:15:34.685Z,29.93
2018-04-06T12:18:05.069Z,33.27
2018-04-06T12:20:35.187Z,31.47
2018-04-06T12:23:06.362Z,33.00
2018-04-06T12:25:36.469Z,31.20
2018-04-06T12:28:06.927Z,31.40
2018-04-06T12:30:37.916Z,32.70
2018-04-06T12:33:07.664Z,34.83
2018-04-06T12:35:38.672Z,32.77
2018-04-06T12:38:08.859Z,31.67
2018-04-06T12:40:39.144Z,31.03
2018-04-06T12:43:09.159Z,30.50
2018-04-06T12:45:39.164Z,31.90
2018-04-06T12:48:09.212Z,34.23
2018-04-06T12:50:39.745Z,33.53
2018-04-06T12:53:09.848Z,31.80
2018-04-06T12:55:39.763Z,32.17
2018-04-06T12:58:09.754Z,33.17
2018-04-06T13:00:39.591Z,32.60
2018-04-06T13:03:09.568Z,35.07
2018-04-06T13:05:40.508Z,32.60
2018-04-06T13:08:11.006Z,32.80
2018-04-06T13:10:39.315Z,33.03
2018-04-06T13:13:07.480Z,33.27
2018-04-06T13:15:35.768Z,33.43
2018-04-06T13:18:04.041Z,35.63
2018-04-06T13:20:32.317Z,33.53
2018-04-06T13:23:00.990Z,34.17
2018-04-06T13:25:29.279Z,34.40
2018-04-06T13:27:57.381Z,34.93
2018-04-06T13:30:25.737Z,33.57
2018-04-06T13:32:54.823Z,33.40
2018-04-06T13:35:22.907Z,33.40
2018-04-06T13:37:51.776Z,34.83
2018-04-06T13:40:20.060Z,33.07
2018-04-06T13:42:48.344Z,35.73
2018-04-06T13:45:16.617Z,35.13
2018-04-06T13:47:44.775Z,32.40
2018-04-06T13:50:13.677Z,33.50
2018-04-06T13:52:41.846Z,33.40
2018-04-06T13:55:10.127Z,32.07
2018-04-06T13:57:38.291Z,33.60
2018-04-06T14:00:07.289Z,32.77
2018-04-06T14:02:35.454Z,31.17
2018-04-06T14:05:03.744Z,32.73
2018-04-06T14:07:31.916Z,35.83
2018-04-06T14:10:00.079Z,32.83
2018-04-06T14:12:28.252Z,31.27
2018-04-06T14:14:56.428Z,33.50
2018-04-06T14:17:26.040Z,31.53
2018-04-06T14:19:56.836Z,30.67
2018-04-06T14:22:24.945Z,32.40
2018-04-06T14:24:53.124Z,34.40
2018-04-06T14:27:21.399Z,34.20
2018-04-06T14:29:50.182Z,31.80
2018-04-06T14:32:18.685Z,32.57
2018-04-06T14:34:47.763Z,33.17
2018-04-06T14:37:16.050Z,32.80
2018-04-06T14:39:45.035Z,32.80
2018-04-06T14:42:13.098Z,29.47
2018-04-06T14:44:41.276Z,34.17
2018-04-06T14:47:09.440Z,35.13
2018-04-06T14:49:37.619Z,34.40
2018-04-06T14:52:08.615Z,33.67
2018-04-06T14:54:36.840Z,33.20
2018-04-06T14:57:07.669Z,31.40
2018-04-06T14:59:36.353Z,32.37
2018-04-06T15:02:04.756Z,31.20
2018-04-06T15:04:33.724Z,29.73
2018-04-06T15:07:01.906Z,31.50
2018-04-06T15:09:30.196Z,32.47
2018-04-06T15:12:02.167Z,30.93
2018-04-06T15:14:31.672Z,32.33
2018-04-06T15:17:01.311Z,30.57
2018-04-06T15:19:31.278Z,31.30
2018-04-06T15:21:59.558Z,32.27
2018-04-06T15:24:29.185Z,33.17
2018-04-06T15:26:58.266Z,32.37
2018-04-06T15:29:27.761Z,31.27
2018-04-06T15:31:57.299Z,31.00
2018-04-06T15:34:26.911Z,29.50
2018-04-06T15:36:55.583Z,28.70
2018-04-06T15:39:25.163Z,28.60
2018-04-06T15:41:53.989Z,26.87
2018-04-06T15:44:22.560Z,26.93
2018-04-06T15:46:52.280Z,26.50
2018-04-06T15:49:20.948Z,28.80
2018-04-06T15:51:50.676Z,28.37
2018-04-06T15:54:19.767Z,26.70
2018-04-06T15:56:48.443Z,27.30
2018-04-06T15:59:18.063Z,25.10
2018-04-06T16:01:47.663Z,22.87
2018-04-06T16:04:17.276Z,24.37
2018-04-06T16:06:46.670Z,22.53
2018-04-06T16:09:16.162Z,23.00
2018-04-06T16:11:45.784Z,24.20
2018-04-06T16:14:15.294Z,22.20
2018-04-06T16:16:44.080Z,19.87
2018-04-06T16:19:13.634Z,22.60
2018-04-06T16:21:43.190Z,20.90
2018-04-06T16:24:12.803Z,18.93
2018-04-06T16:26:42.910Z,18.70
2018-04-06T16:29:12.487Z,19.00
2018-04-06T16:31:41.909Z,17.20
2018-04-06T16:34:11.535Z,20.73
2018-04-06T16:36:40.315Z,23.10
2018-04-06T16:39:09.805Z,20.67
2018-04-06T16:41:39.959Z,19.17
2018-04-06T16:44:09.445Z,18.70
2018-04-06T16:46:38.952Z,17.27
2018-04-06T16:49:07.646Z,18.27
2018-04-06T16:51:37.137Z,19.77
2018-04-06T16:54:06.656Z,19.03
2018-04-06T16:56:36.886Z,18.43
2018-04-06T16:59:05.557Z,18.10
2018-04-06T17:01:35.144Z,17.80
2018-04-06T17:04:04.781Z,18.53
2018-04-06T17:06:33.551Z,16.00
2018-04-06T17:09:03.887Z,14.80
2018-04-06T17:11:33.493Z,14.40
2018-04-06T17:14:02.990Z,13.80
2018-04-06T17:16:32.499Z,15.57
2018-04-06T17:19:02.007Z,15.80
2018-04-06T17:21:32.326Z,15.43
2018-04-06T17:24:01.935Z,14.53
2018-04-06T17:26:31.544Z,14.17
2018-04-06T17:29:00.953Z,13.13
2018-04-06T17:31:29.745Z,13.83
2018-04-06T17:33:59.355Z,12.60
2018-04-06T17:36:28.246Z,10.70
2018-04-06T17:38:57.018Z,11.97
2018-04-06T17:41:26.637Z,12.00
2018-04-06T17:43:57.869Z,10.47
2018-04-06T17:46:27.493Z,10.43
2018-04-06T17:48:57.716Z,16.13
2018-04-06T17:51:27.311Z,10.27
2018-04-06T17:53:56.920Z,9.43
2018-04-06T17:56:26.435Z,9.47
2018-04-06T17:58:56.030Z,10.33
2018-04-06T18:01:25.741Z,8.00
2018-04-06T18:03:54.986Z,7.80
2018-04-06T18:06:24.244Z,8.60
2018-04-06T18:08:53.844Z,8.47
2018-04-06T18:11:22.528Z,7.07
2018-04-06T18:13:52.139Z,7.13
2018-04-06T18:16:21.039Z,6.87
2018-04-06T18:18:50.518Z,6.60
2018-04-06T18:21:20.861Z,7.00
2018-04-06T18:23:50.347Z,7.30
2018-04-06T18:26:19.969Z,5.40
2018-04-06T18:28:49.543Z,6.30
2018-04-06T18:31:19.091Z,5.47
2018-04-06T18:33:47.985Z,6.33
2018-04-06T18:36:18.378Z,6.10
2018-04-06T18:38:48.017Z,5.80
2018-04-06T18:41:17.603Z,5.80
2018-04-06T18:43:47.113Z,6.70
2018-04-06T18:46:16.720Z,5.53
2018-04-06T18:48:47.054Z,6.37
2018-04-06T18:51:16.654Z,6.87
2018-04-06T18:53:46.258Z,5.13
2018-04-06T18:56:15.163Z,6.07
2018-04-06T18:58:44.872Z,5.37
2018-04-06T19:01:13.647Z,5.60
2018-04-06T19:03:43.368Z,5.63
2018-04-06T19:06:13.980Z,5.20
2018-04-06T19:08:43.380Z,5.60
2018-04-06T19:11:13.105Z,4.63
2018-04-06T19:13:42.590Z,6.00
2018-04-06T19:16:12.116Z,5.40
2018-04-06T19:18:41.004Z,6.00
2018-04-06T19:21:09.907Z,4.87
2018-04-06T19:23:39.493Z,5.43
2018-04-06T19:26:08.290Z,5.60
2018-04-06T19:28:37.787Z,5.43
2018-04-06T19:31:06.581Z,5.87
2018-04-06T19:33:35.475Z,6.20
2018-04-06T19:36:05.397Z,5.67
2018-04-06T19:38:34.120Z,6.03
2018-04-06T19:41:02.959Z,4.90
2018-04-06T19:43:33.186Z,5.50
2018-04-06T19:46:03.099Z,5.67
2018-04-06T19:48:32.808Z,5.90
2018-04-06T19:51:02.631Z,6.30
2018-04-06T19:53:32.874Z,6.63
2018-04-06T19:56:02.344Z,6.33
2018-04-06T19:58:31.958Z,6.67
2018-04-06T20:01:02.595Z,5.80
2018-04-06T20:03:32.806Z,5.47
2018-04-06T20:06:03.140Z,6.20
2018-04-06T20:08:31.882Z,6.10
2018-04-06T20:11:02.035Z,6.03
2018-04-06T20:13:31.835Z,7.40
2018-04-06T20:16:01.361Z,7.10
2018-04-06T20:18:30.993Z,7.00
2018-04-06T20:21:00.476Z,7.47
2018-04-06T20:23:30.084Z,6.90
2018-04-06T20:25:59.788Z,6.53
2018-04-06T20:28:29.497Z,6.03
2018-04-06T20:30:58.982Z,6.40
2018-04-06T20:33:28.500Z,7.10
2018-04-06T20:35:58.247Z,6.60
2018-04-06T20:38:26.996Z,7.17
2018-04-06T20:40:55.791Z,6.43
2018-04-06T20:43:24.580Z,7.03
2018-04-06T20:45:54.068Z,6.50
2018-04-06T20:48:24.180Z,8.27
2018-04-06T20:50:53.714Z,6.90
2018-04-06T20:53:23.321Z,6.90
2018-04-06T20:55:52.104Z,7.47
2018-04-06T20:58:21.802Z,7.10
2018-04-06T21:00:50.477Z,7.90
2018-04-06T21:03:19.992Z,7.83
2018-04-06T21:05:48.383Z,7.97
2018-04-06T21:08:17.146Z,7.17
2018-04-06T21:10:46.681Z,7.53
2018-04-06T21:13:16.063Z,8.10
2018-04-06T21:15:45.136Z,7.30
2018-04-06T21:18:14.636Z,7.20
2018-04-06T21:20:43.239Z,6.80
2018-04-06T21:23:12.331Z,7.00
2018-04-06T21:25:41.446Z,7.27
2018-04-06T21:28:09.580Z,8.63
2018-04-06T21:30:37.760Z,9.00
2018-04-06T21:33:06.036Z,8.53
2018-04-06T21:35:34.204Z,9.57
2018-04-06T21:38:02.375Z,9.10
2018-04-06T21:40:30.658Z,8.00
2018-04-06T21:42:58.935Z,9.30
2018-04-06T21:45:27.049Z,9.50
2018-04-06T21:47:55.884Z,10.77
2018-04-06T21:50:24.673Z,9.00
2018-04-06T21:52:53.063Z,10.00
2018-04-06T21:55:21.225Z,10.10
2018-04-06T21:57:49.615Z,8.83
2018-04-06T22:00:17.780Z,7.87
2018-04-06T22:02:46.058Z,9.70
2018-04-06T22:05:14.232Z,9.17
2018-04-06T22:07:42.400Z,9.93
2018-04-06T22:10:10.793Z,10.70
2018-04-06T22:12:39.066Z,10.80
2018-04-06T22:15:07.849Z,10.77
2018-04-06T22:17:36.019Z,10.33
2018-04-06T22:20:04.701Z,9.30
2018-04-06T22:22:32.877Z,11.57
2018-04-06T22:25:01.469Z,11.47
2018-04-06T22:27:30.463Z,11.40
2018-04-06T22:29:58.738Z,11.20
2018-04-06T22:32:27.013Z,13.17
2018-04-06T22:34:55.187Z,12.93
2018-04-06T22:37:23.976Z,11.80
2018-04-06T22:39:52.137Z,11.83
2018-04-06T22:42:20.312Z,12.50
2018-04-06T22:44:48.488Z,12.57
2018-04-06T22:47:16.559Z,10.53
2018-04-06T22:49:44.730Z,13.00
2018-04-06T22:52:12.801Z,12.30
2018-04-06T22:54:41.093Z,13.90
2018-04-06T22:57:15.651Z,15.50
2018-04-06T22:59:43.887Z,15.87
2018-04-06T23:02:11.950Z,15.67
2018-04-06T23:04:40.120Z,18.33
2018-04-06T23:07:08.410Z,18.50
2018-04-06T23:09:36.570Z,19.10
2018-04-06T23:12:04.750Z,16.23
2018-04-06T23:14:32.916Z,18.50
2018-04-06T23:17:00.988Z,17.27
2018-04-06T23:19:29.136Z,13.30
2018-04-06T23:21:57.962Z,21.97
2018-04-06T23:24:26.236Z,17.80
2018-04-06T23:26:54.513Z,20.93
2018-04-06T23:29:22.680Z,19.77
2018-04-06T23:31:50.963Z,19.20
2018-04-06T23:34:19.125Z,20.73
2018-04-06T23:36:48.948Z,19.87
2018-04-06T23:39:17.110Z,21.20
2018-04-06T23:41:45.287Z,22.37
2018-04-06T23:44:13.463Z,18.43
2018-04-06T23:46:41.746Z,18.80
2018-04-06T23:49:12.453Z,17.80
2018-04-06T23:51:40.543Z,17.63
2018-04-06T23:54:10.978Z,18.80
2018-04-06T23:56:39.143Z,17.50
2018-04-06T23:59:13.768Z,17.53
